Time;durP1;ratioP1;P1;durP2;ratioP2;P2;SDS_P1;SDS_P2;PMS_P1;PMS_P2;Temp;Humidity;BMP_temperature;BMP_pressure;BME280_temperature;BME280_humidity;BME280_pressure;Samples;Min_cycle;Max_cycle;Signal;HPM_P1;HPM_P2
2024/01/31 00:00:19;;;;;;;32.85;16.25;;;;;;;3.14;68.16;102838.25;5089205;28;20050;-75
2024/01/31 00:02:45;;;;;;;25.70;15.52;;;;;;;3.08;68.07;102815.31;5109496;28;20114;-76
2024/01/31 00:05:13;;;;;;;27.75;14.85;;;;;;;3.40;67.17;102854.66;5109716;28;20111;-76
2024/01/31 00:07:39;;;;;;;33.85;13.77;;;;;;;3.40;66.86;102845.81;5120675;28;20015;-75
2024/01/31 00:10:05;;;;;;;27.73;15.25;;;;;;;3.45;66.10;102859.94;5114190;28;20019;-75
2024/01/31 00:12:30;;;;;;;23.85;14.32;;;;;;;3.28;66.05;102828.25;5109368;28;20032;-76
2024/01/31 00:14:56;;;;;;;21.98;14.65;;;;;;;3.37;66.12;102844.06;5114329;28;20030;-77
2024/01/31 00:17:21;;;;;;;25.67;14.57;;;;;;;3.32;66.22;102839.75;5113027;28;20139;-77
2024/01/31 00:19:47;;;;;;;24.48;15.43;;;;;;;3.32;66.25;102839.75;5093157;28;20077;-76
2024/01/31 00:22:12;;;;;;;29.20;16.15;;;;;;;3.35;66.45;102845.00;5108964;28;20535;-77
2024/01/31 00:24:38;;;;;;;28.77;15.85;;;;;;;3.21;66.62;102821.31;5107335;28;20028;-74
2024/01/31 00:27:03;;;;;;;30.08;15.95;;;;;;;3.32;66.39;102845.94;5107856;28;20035;-77
2024/01/31 00:29:29;;;;;;;25.92;15.43;;;;;;;3.23;66.57;102841.66;5107527;28;20490;-76
2024/01/31 00:31:54;;;;;;;21.45;13.95;;;;;;;3.18;66.45;102842.63;5107643;28;20108;-77
2024/01/31 00:34:20;;;;;;;30.67;16.45;;;;;;;3.27;66.75;102853.97;5107658;28;20077;-77
2024/01/31 00:36:45;;;;;;;28.92;15.90;;;;;;;3.18;66.54;102856.78;5107846;28;20055;-76
2024/01/31 00:39:11;;;;;;;31.13;15.60;;;;;;;3.12;66.53;102843.56;5107453;28;20100;-77
2024/01/31 00:41:36;;;;;;;26.30;15.57;;;;;;;3.14;66.76;102846.22;5107345;28;20027;-77
2024/01/31 00:44:02;;;;;;;29.92;15.93;;;;;;;3.04;66.88;102840.16;5063976;28;20561;-76
2024/01/31 00:46:27;;;;;;;28.90;16.60;;;;;;;3.01;66.85;102837.56;5047739;28;20032;-75
2024/01/31 00:48:53;;;;;;;23.45;16.10;;;;;;;2.95;67.50;102864.22;5064902;28;20124;-77
2024/01/31 00:51:19;;;;;;;29.25;17.98;;;;;;;2.84;67.58;102850.22;5065934;28;20035;-75
2024/01/31 00:53:44;;;;;;;35.13;17.80;;;;;;;2.86;67.82;102858.16;5065411;28;20037;-77
2024/01/31 00:56:10;;;;;;;34.35;18.40;;;;;;;2.84;67.89;102858.19;5067738;28;20088;-77
2024/01/31 00:58:35;;;;;;;40.28;20.73;;;;;;;2.86;68.02;102852.84;5078638;28;20144;-77
2024/01/31 01:01:01;;;;;;;38.20;19.50;;;;;;;2.95;68.12;102861.56;5079331;28;20048;-77
2024/01/31 01:03:26;;;;;;;35.42;19.05;;;;;;;2.53;67.88;102798.41;5075743;28;20131;-74
2024/01/31 01:05:52;;;;;;;41.10;21.27;;;;;;;2.95;68.00;102855.38;5064503;28;20064;-75
2024/01/31 01:08:18;;;;;;;36.50;20.77;;;;;;;2.87;68.14;102836.00;5046852;28;20509;-76
2024/01/31 01:10:43;;;;;;;41.35;20.77;;;;;;;2.98;68.04;102839.38;5064185;28;20071;-77
2024/01/31 01:13:09;;;;;;;36.80;20.23;;;;;;;2.85;67.81;102820.06;5063790;28;20025;-75
2024/01/31 01:15:34;;;;;;;36.13;19.85;;;;;;;3.01;67.48;102845.53;5095095;28;20027;-76
2024/01/31 01:18:00;;;;;;;30.92;18.30;;;;;;;2.80;67.74;102821.03;5107050;28;20036;-75
2024/01/31 01:20:25;;;;;;;37.35;19.77;;;;;;;2.95;67.58;102842.97;5107187;28;20024;-78
2024/01/31 01:22:51;;;;;;;35.28;19.13;;;;;;;2.69;67.98;102826.53;5088786;28;20445;-76
2024/01/31 01:25:16;;;;;;;36.08;20.05;;;;;;;2.75;67.75;102831.75;5107009;28;20120;-77
2024/01/31 01:27:50;;;;;;;36.00;20.85;;;;;;;2.76;68.22;102838.81;5107409;28;20030;-74
2024/01/31 01:30:20;;;;;;;37.53;19.92;;;;;;;2.75;68.36;102851.19;5107060;28;20084;-76
2024/01/31 01:32:46;;;;;;;34.10;20.45;;;;;;;2.67;68.58;102844.25;5106768;28;20419;-76
2024/01/31 01:35:11;;;;;;;38.33;19.90;;;;;;;2.65;68.61;102851.38;5106821;28;20065;-76
2024/01/31 01:37:37;;;;;;;37.15;20.85;;;;;;;2.40;68.78;102818.03;5107340;28;20032;-75
2024/01/31 01:40:03;;;;;;;34.33;21.38;;;;;;;2.61;68.83;102846.97;5108254;28;20487;-78
2024/01/31 01:42:28;;;;;;;42.88;21.35;;;;;;;2.55;68.28;102839.09;5108318;28;20090;-77
2024/01/31 01:44:54;;;;;;;32.95;20.60;;;;;;;2.49;68.64;102840.06;5112992;28;20061;-77
2024/01/31 01:47:19;;;;;;;39.00;21.90;;;;;;;2.32;68.68;102830.53;5126380;28;20047;-77
2024/01/31 01:49:46;;;;;;;39.33;22.83;;;;;;;2.28;68.87;102836.78;5098144;28;20521;-76
2024/01/31 01:52:14;;;;;;;38.10;21.67;;;;;;;2.15;69.09;102826.31;5111074;28;20065;-76
2024/01/31 01:54:39;;;;;;;38.58;21.30;;;;;;;2.19;69.30;102836.00;5092792;28;20070;-74
2024/01/31 01:57:06;;;;;;;36.28;21.50;;;;;;;2.01;69.70;102825.59;5112169;28;20558;-75
2024/01/31 01:59:32;;;;;;;42.88;23.27;;;;;;;2.19;70.07;102829.81;5120996;28;20035;-77
2024/01/31 02:01:59;;;;;;;37.88;22.08;;;;;;;2.22;69.94;102826.25;5110818;28;20179;-76
2024/01/31 02:04:24;;;;;;;35.55;21.70;;;;;;;1.97;70.05;102794.66;5110772;28;20035;-78
2024/01/31 02:06:51;;;;;;;50.05;23.17;;;;;;;2.05;70.26;102795.44;5110193;28;20131;-77
2024/01/31 02:09:17;;;;;;;37.05;21.55;;;;;;;2.15;70.23;102790.91;5110308;28;20115;-75
2024/01/31 02:11:44;;;;;;;38.75;18.40;;;;;;;2.19;70.67;102782.03;5110296;28;20039;-76
2024/01/31 02:14:09;;;;;;;36.33;19.15;;;;;;;2.26;70.67;102777.53;5110111;28;20027;-75
2024/01/31 02:16:35;;;;;;;42.33;19.85;;;;;;;2.43;70.85;102796.75;5110475;28;20058;-75
2024/01/31 02:19:00;;;;;;;37.05;20.65;;;;;;;2.43;71.02;102792.34;5110171;28;20028;-77
2024/01/31 02:21:27;;;;;;;37.33;22.15;;;;;;;2.50;71.14;102793.13;5092141;28;20123;-74
2024/01/31 02:23:53;;;;;;;34.63;21.58;;;;;;;2.45;70.74;102786.97;5110132;28;20125;-76
2024/01/31 02:26:18;;;;;;;43.08;24.65;;;;;;;2.52;70.51;102791.31;5110814;28;20575;-76
2024/01/31 02:28:44;;;;;;;44.80;23.55;;;;;;;2.41;70.66;102758.72;5112086;28;20024;-76
2024/01/31 02:31:09;;;;;;;42.22;24.38;;;;;;;2.59;70.33;102787.69;5110992;28;20024;-76
2024/01/31 02:33:35;;;;;;;43.33;24.35;;;;;;;2.52;70.35;102772.72;5118497;28;20023;-76
2024/01/31 02:36:00;;;;;;;42.53;23.92;;;;;;;2.52;70.13;102768.31;5125821;28;20074;-78
2024/01/31 02:38:27;;;;;;;46.40;24.48;;;;;;;2.52;70.05;102773.63;5113485;28;20480;-75
2024/01/31 02:40:52;;;;;;;46.85;24.70;;;;;;;2.44;69.91;102756.03;5109801;28;20035;-76
2024/01/31 02:43:18;;;;;;;45.85;24.73;;;;;;;2.38;70.25;102756.13;5109450;28;20108;-75
2024/01/31 02:45:43;;;;;;;44.17;25.88;;;;;;;2.41;70.43;102756.97;5109196;28;20028;-76
2024/01/31 02:48:09;;;;;;;46.92;24.58;;;;;;;2.54;69.86;102777.13;5109811;28;20027;-75
2024/01/31 02:50:34;;;;;;;44.78;24.48;;;;;;;2.40;69.65;102749.88;5108831;28;20694;-75
2024/01/31 02:53:01;;;;;;;40.63;23.50;;;;;;;2.38;69.46;102757.00;5109577;28;20101;-75
2024/01/31 02:55:26;;;;;;;44.00;24.60;;;;;;;2.47;69.42;102777.25;5109464;28;20016;-75
2024/01/31 02:57:52;;;;;;;49.10;24.80;;;;;;;2.30;69.51;102750.00;5109125;28;20046;-75
2024/01/31 03:00:17;;;;;;;39.95;23.95;;;;;;;2.42;69.52;102752.50;5108951;28;20106;-77
2024/01/31 03:02:43;;;;;;;44.10;26.02;;;;;;;2.44;69.25;102766.66;5109077;28;20027;-76
2024/01/31 03:05:09;;;;;;;46.40;25.52;;;;;;;2.49;69.22;102764.81;5109135;28;20027;-75
2024/01/31 03:07:35;;;;;;;46.50;24.33;;;;;;;2.41;69.52;102756.06;5109005;28;20027;-74
2024/01/31 03:10:00;;;;;;;49.45;24.98;;;;;;;2.41;69.16;102772.00;5109033;28;20030;-77
2024/01/31 03:12:26;;;;;;;49.10;24.40;;;;;;;2.31;69.35;102770.38;5109854;28;20038;-77
2024/01/31 03:14:51;;;;;;;40.15;24.90;;;;;;;2.35;69.39;102772.09;5109606;28;20080;-76
2024/01/31 03:17:17;;;;;;;51.13;26.00;;;;;;;2.15;69.29;102746.69;5112651;28;20062;-76
2024/01/31 03:19:42;;;;;;;43.28;25.77;;;;;;;2.14;69.35;102742.25;5116837;28;20038;-76
2024/01/31 03:22:09;;;;;;;49.30;26.35;;;;;;;2.19;69.28;102740.44;5122956;28;20028;-77
2024/01/31 03:24:35;;;;;;;42.47;23.77;;;;;;;2.32;69.06;102764.16;5105978;28;20028;-77
2024/01/31 03:27:02;;;;;;;38.90;25.05;;;;;;;2.31;68.85;102765.06;5111019;28;20475;-77
2024/01/31 03:29:28;;;;;;;45.72;25.27;;;;;;;2.30;68.79;102768.59;5108605;28;20050;-74
2024/01/31 03:31:54;;;;;;;43.05;24.75;;;;;;;2.27;68.59;102771.28;5108910;28;20579;-77
2024/01/31 03:34:20;;;;;;;44.58;25.65;;;;;;;2.18;68.45;102765.22;5108202;28;20071;-77
2024/01/31 03:36:46;;;;;;;47.30;26.75;;;;;;;2.17;68.36;102760.78;5108454;28;20079;-75
2024/01/31 03:39:12;;;;;;;45.00;26.23;;;;;;;2.11;68.62;102758.22;5108516;28;20051;-76
2024/01/31 03:41:43;;;;;;;40.03;25.13;;;;;;;2.19;68.34;102772.28;5108675;28;20050;-76
2024/01/31 03:44:08;;;;;;;43.67;24.17;;;;;;;2.07;68.12;102731.75;5108766;28;20026;-77
2024/01/31 03:46:34;;;;;;;41.33;25.38;;;;;;;2.02;68.23;102745.06;5108931;28;20107;-76
2024/01/31 03:48:59;;;;;;;44.95;26.88;;;;;;;2.07;68.31;102752.97;5109750;28;20366;-76
2024/01/31 03:51:25;;;;;;;43.58;24.90;;;;;;;2.14;68.15;102747.56;5117755;28;20023;-75
2024/01/31 03:53:51;;;;;;;49.35;24.92;;;;;;;2.17;67.77;102760.78;5108683;28;20518;-78
2024/01/31 03:56:17;;;;;;;46.85;24.40;;;;;;;2.13;67.91;102751.13;5108323;28;20464;-76
2024/01/31 03:58:44;;;;;;;46.20;25.95;;;;;;;2.07;68.17;102772.44;5108289;28;20027;-74
2024/01/31 04:01:15;;;;;;;40.70;24.38;;;;;;;2.05;68.02;102768.91;5108570;28;20036;-76
2024/01/31 04:03:43;;;;;;;51.58;26.80;;;;;;;1.94;68.13;102749.59;5108394;28;20034;-73
2024/01/31 04:06:09;;;;;;;46.25;25.73;;;;;;;1.95;67.79;102743.41;5109791;28;20036;-76
2024/01/31 04:08:34;;;;;;;44.17;24.92;;;;;;;2.04;67.60;102743.28;5090049;28;20032;-78
2024/01/31 04:11:00;;;;;;;43.15;25.85;;;;;;;2.07;67.63;102745.91;5117881;28;20019;-78
2024/01/31 04:13:25;;;;;;;42.85;25.20;;;;;;;2.26;67.61;102766.91;5121300;28;20019;-76
2024/01/31 04:15:52;;;;;;;42.88;24.60;;;;;;;2.22;67.15;102755.44;5109279;28;20114;-74
2024/01/31 04:18:17;;;;;;;40.33;24.75;;;;;;;2.18;67.24;102751.06;5109109;28;20019;-76
2024/01/31 04:20:43;;;;;;;45.90;25.45;;;;;;;2.24;66.87;102755.41;5055183;28;20530;-77
2024/01/31 04:23:09;;;;;;;46.08;26.42;;;;;;;2.31;67.14;102773.03;5107974;28;20128;-76
2024/01/31 04:25:35;;;;;;;45.55;23.20;;;;;;;2.17;66.47;102750.19;5064103;28;20067;-75
2024/01/31 04:28:00;;;;;;;44.08;25.90;;;;;;;2.25;67.07;102770.44;5064566;28;20560;-77
2024/01/31 04:30:26;;;;;;;50.55;26.38;;;;;;;2.28;66.84;102776.59;5064258;28;20133;-80
2024/01/31 04:32:52;;;;;;;48.88;27.58;;;;;;;2.35;66.92;102777.41;5065057;28;20111;-79
2024/01/31 04:35:18;;;;;;;46.97;27.23;;;;;;;2.44;66.78;102779.94;5064575;28;20268;-77
2024/01/31 04:37:43;;;;;;;48.83;26.17;;;;;;;2.43;66.45;102776.41;5064243;28;20139;-80
2024/01/31 04:40:09;;;;;;;45.55;26.42;;;;;;;2.30;66.30;102774.78;5064264;28;20045;-75
2024/01/31 04:42:35;;;;;;;45.88;25.90;;;;;;;2.44;66.63;102777.28;5063311;28;20480;-77
2024/01/31 04:45:01;;;;;;;39.38;24.48;;;;;;;2.45;66.24;102773.69;5063948;28;20036;-75
2024/01/31 04:47:26;;;;;;;40.53;25.10;;;;;;;2.51;66.13;102778.94;5064717;28;20097;-76
2024/01/31 04:49:53;;;;;;;42.17;26.60;;;;;;;2.49;65.86;102786.06;5064130;28;20021;-75
2024/01/31 04:52:19;;;;;;;44.55;26.15;;;;;;;2.35;65.89;102767.66;5064601;28;20040;-75
2024/01/31 04:54:44;;;;;;;40.97;23.75;;;;;;;2.36;65.81;102777.38;5064869;28;20176;-75
2024/01/31 04:57:09;;;;;;;41.70;24.58;;;;;;;2.27;65.98;102758.91;5097816;28;20714;-76
2024/01/31 04:59:39;;;;;;;40.58;23.17;;;;;;;2.24;65.96;102769.56;5119384;28;20035;-75
2024/01/31 05:02:06;;;;;;;52.10;24.90;;;;;;;2.31;65.77;102778.34;5118123;28;20028;-74
2024/01/31 05:04:32;;;;;;;46.50;25.27;;;;;;;2.38;66.15;102795.94;5106527;28;20030;-75
2024/01/31 05:06:58;;;;;;;41.22;24.60;;;;;;;2.39;65.50;102784.41;5111603;28;20063;-79
2024/01/31 05:09:23;;;;;;;42.05;25.95;;;;;;;2.29;65.78;102789.00;5107480;28;20076;-75
2024/01/31 05:11:49;;;;;;;41.47;24.05;;;;;;;2.22;65.39;102775.78;5107322;28;20126;-76
2024/01/31 05:14:15;;;;;;;42.92;26.00;;;;;;;2.28;65.36;102775.72;5106521;28;20023;-74
2024/01/31 05:16:42;;;;;;;49.65;25.95;;;;;;;2.13;65.29;102772.38;5107432;28;20028;-77
2024/01/31 05:19:08;;;;;;;47.45;25.70;;;;;;;2.24;65.38;102779.28;5107213;28;20514;-75
2024/01/31 05:21:34;;;;;;;49.53;25.25;;;;;;;2.31;65.45;102775.69;5109795;28;20027;-76
2024/01/31 05:24:00;;;;;;;37.95;25.05;;;;;;;2.36;65.66;102785.34;5092561;28;20027;-77
2024/01/31 05:26:25;;;;;;;42.13;26.73;;;;;;;2.31;65.64;102778.34;5111400;28;20028;-78
2024/01/31 05:28:51;;;;;;;47.22;24.38;;;;;;;2.31;65.55;102778.34;5111427;28;20106;-79
2024/01/31 05:31:16;;;;;;;37.40;23.52;;;;;;;2.44;65.66;102782.59;5111446;28;20027;-76
2024/01/31 05:33:42;;;;;;;42.13;23.50;;;;;;;2.44;65.45;102788.78;5111230;28;20065;-74
2024/01/31 05:36:07;;;;;;;39.22;23.23;;;;;;;2.35;65.28;102766.78;5111183;28;20043;-75
2024/01/31 05:38:33;;;;;;;38.88;23.92;;;;;;;2.27;65.12;102758.03;5111990;28;20525;-77
2024/01/31 05:40:58;;;;;;;46.50;25.00;;;;;;;2.40;64.70;102786.19;5116420;28;20046;-77
2024/01/31 05:43:24;;;;;;;37.47;22.75;;;;;;;2.36;65.05;102771.19;5118363;28;20552;-77
2024/01/31 05:45:49;;;;;;;41.38;24.30;;;;;;;2.44;64.80;102785.25;5112114;28;20037;-76
2024/01/31 05:48:16;;;;;;;38.35;22.25;;;;;;;2.34;64.74;102783.59;5116286;28;20023;-76
2024/01/31 05:50:41;;;;;;;44.90;23.30;;;;;;;2.35;64.93;102786.25;5077106;28;20454;-80
2024/01/31 05:53:07;;;;;;;53.83;25.17;;;;;;;2.08;64.76;102747.63;5108803;28;20128;-77
2024/01/31 05:55:33;;;;;;;40.20;23.83;;;;;;;2.36;64.65;102781.78;5109439;28;20023;-75
2024/01/31 05:57:58;;;;;;;49.75;24.63;;;;;;;2.20;65.03;102751.94;5109440;28;20110;-76
2024/01/31 06:00:24;;;;;;;42.20;24.90;;;;;;;2.34;65.14;102786.25;5110224;28;20073;-77
2024/01/31 06:02:49;;;;;;;39.03;23.77;;;;;;;2.37;64.96;102787.09;5092179;28;20051;-77
2024/01/31 06:05:15;;;;;;;40.55;24.98;;;;;;;2.21;64.78;102743.06;5109865;28;20031;-77
2024/01/31 06:07:40;;;;;;;43.90;23.30;;;;;;;2.22;64.83;102749.25;5092345;28;20032;-76
2024/01/31 06:10:06;;;;;;;41.28;22.73;;;;;;;2.38;65.00;102780.03;5109894;28;20103;-74
2024/01/31 06:12:32;;;;;;;42.30;25.08;;;;;;;2.28;64.91;102757.13;5109615;28;20027;-71
2024/01/31 06:14:57;;;;;;;39.15;26.17;;;;;;;2.53;65.20;102788.66;5087544;28;20044;-75
2024/01/31 06:17:23;;;;;;;49.90;27.98;;;;;;;2.57;64.95;102778.84;5109787;28;20067;-74
2024/01/31 06:19:48;;;;;;;38.05;24.83;;;;;;;2.69;65.05;102792.84;5109768;28;20031;-75
2024/01/31 06:22:14;;;;;;;47.70;23.92;;;;;;;2.69;64.98;102792.00;5098393;28;20100;-79
2024/01/31 06:24:39;;;;;;;51.20;23.67;;;;;;;2.78;64.45;102786.53;5106982;28;20027;-76
2024/01/31 06:27:05;;;;;;;38.35;22.92;;;;;;;2.85;64.73;102785.53;5109575;28;20031;-75
2024/01/31 06:29:30;;;;;;;47.53;26.23;;;;;;;3.02;64.32;102802.09;5077596;28;20411;-75
2024/01/31 06:32:00;;;;;;;58.00;25.27;;;;;;;3.18;64.42;102800.09;5109373;28;20138;-73
2024/01/31 06:34:25;;;;;;;47.00;25.48;;;;;;;3.18;64.10;102774.34;5107695;28;20059;-76
2024/01/31 06:36:52;;;;;;;41.08;23.33;;;;;;;3.46;63.42;102795.16;5101750;28;20082;-72
2024/01/31 06:39:17;;;;;;;50.95;25.63;;;;;;;3.38;62.78;102789.09;5109950;28;20024;-73
2024/01/31 06:41:43;;;;;;;56.05;23.73;;;;;;;3.56;62.66;102800.31;5093166;28;20108;-74
2024/01/31 06:44:08;;;;;;;52.28;26.00;;;;;;;3.66;61.91;102798.34;5109396;28;20058;-73
2024/01/31 06:46:34;;;;;;;45.15;26.10;;;;;;;3.81;62.12;102803.41;5109498;28;20399;-73
2024/01/31 06:48:59;;;;;;;42.60;26.08;;;;;;;3.90;62.06;102800.56;5095441;28;20414;-79
2024/01/31 06:51:25;;;;;;;47.45;28.02;;;;;;;3.95;61.47;102796.00;5108431;28;20039;-76
2024/01/31 06:53:51;;;;;;;59.28;30.77;;;;;;;4.08;61.19;102802.88;5103859;28;20036;-76
2024/01/31 06:56:19;;;;;;;67.93;30.70;;;;;;;4.10;61.05;102803.69;5098957;28;20035;-72
2024/01/31 06:58:49;;;;;;;71.18;31.35;;;;;;;4.04;61.06;102782.53;5056630;28;20533;-74
2024/01/31 07:01:18;;;;;;;72.43;34.28;;;;;;;4.18;60.63;102801.78;5094427;28;20020;-73
2024/01/31 07:03:45;;;;;;;70.50;35.85;;;;;;;4.24;60.98;102792.78;5108356;28;20047;-75
2024/01/31 07:06:13;;;;;;;61.13;33.95;;;;;;;4.33;61.17;102800.59;5108780;28;20508;-73
2024/01/31 07:08:39;;;;;;;84.10;35.58;;;;;;;4.42;61.00;102791.50;5094556;28;20027;-72
2024/01/31 07:11:08;;;;;;;66.40;34.35;;;;;;;4.53;60.76;102784.16;5107263;28;20027;-75
2024/01/31 07:13:39;;;;;;;67.13;34.00;;;;;;;4.68;60.55;102784.69;5101095;28;20061;-77
2024/01/31 07:16:09;;;;;;;68.07;31.05;;;;;;;4.61;59.71;102774.22;5105094;28;20115;-76
2024/01/31 07:18:41;;;;;;;73.90;31.60;;;;;;;4.67;59.55;102766.09;5109683;28;20024;-73
2024/01/31 07:21:08;;;;;;;85.38;39.80;;;;;;;4.83;59.53;102784.34;5108972;28;20398;-77
2024/01/31 07:23:34;;;;;;;78.63;38.13;;;;;;;4.70;59.49;102747.34;5098493;28;20035;-76
2024/01/31 07:26:00;;;;;;;76.78;37.20;;;;;;;4.84;59.30;102769.22;5113176;28;20024;-74
2024/01/31 07:28:26;;;;;;;60.28;31.77;;;;;;;4.88;59.22;102781.56;5107532;28;20053;-78
2024/01/31 07:30:52;;;;;;;59.95;33.67;;;;;;;4.98;59.65;102772.47;5105553;28;20415;-76
2024/01/31 07:33:19;;;;;;;59.22;31.15;;;;;;;5.06;59.13;102781.13;5116202;28;20023;-76
2024/01/31 07:38:20;;;;;;;58.92;32.03;;;;;;;5.04;58.83;102777.66;5371407;22;20531;-79
2024/01/31 07:40:46;;;;;;;62.67;33.85;;;;;;;5.10;58.80;102777.50;5046562;28;20068;-73
2024/01/31 07:43:11;;;;;;;82.50;32.80;;;;;;;5.15;59.28;102775.56;5049500;28;20448;-72
2024/01/31 07:45:37;;;;;;;390.20;47.00;;;;;;;5.14;59.11;102773.81;5015357;28;20036;-74
2024/01/31 07:48:03;;;;;;;87.13;40.63;;;;;;;5.18;59.22;102758.63;5049794;28;20067;-73
2024/01/31 07:50:28;;;;;;;70.90;39.35;;;;;;;5.02;58.77;102731.44;5055389;28;20047;-76
2024/01/31 07:52:54;;;;;;;76.90;35.42;;;;;;;5.18;59.18;102737.28;5040730;28;20025;-74
2024/01/31 07:55:20;;;;;;;66.43;32.30;;;;;;;5.29;58.79;102741.41;5061441;28;20067;-73
2024/01/31 07:57:45;;;;;;;60.65;32.58;;;;;;;5.36;58.71;102751.03;5039761;28;20025;-72
2024/01/31 08:00:12;;;;;;;58.17;32.42;;;;;;;5.40;58.52;102755.38;5055735;28;20096;-72
2024/01/31 08:02:37;;;;;;;65.45;35.17;;;;;;;5.23;58.78;102743.38;5069593;28;20035;-74
2024/01/31 08:05:03;;;;;;;66.82;35.15;;;;;;;5.43;59.05;102744.63;5053593;28;20032;-75
2024/01/31 08:07:28;;;;;;;71.50;35.55;;;;;;;5.48;58.54;102745.38;5069996;28;20178;-74
2024/01/31 08:09:56;;;;;;;67.00;33.53;;;;;;;5.49;58.40;102733.78;5069759;28;20032;-73
2024/01/31 08:12:22;;;;;;;58.50;32.35;;;;;;;5.60;57.80;102729.91;5054188;28;20722;-73
2024/01/31 08:14:48;;;;;;;52.53;27.58;;;;;;;5.72;57.18;102741.16;5077642;28;20035;-74
2024/01/31 08:17:13;;;;;;;52.53;26.92;;;;;;;5.59;57.45;102717.50;5089532;28;20059;-77
2024/01/31 08:19:39;;;;;;;43.42;24.80;;;;;;;5.79;56.80;102731.19;5056327;28;20036;-74
2024/01/31 08:22:04;;;;;;;48.67;25.85;;;;;;;5.73;56.87;102704.66;5069464;28;20103;-77
2024/01/31 08:24:30;;;;;;;37.92;23.77;;;;;;;5.90;56.61;102718.44;5065103;28;20025;-73
2024/01/31 08:26:55;;;;;;;44.28;21.23;;;;;;;6.14;56.38;102723.06;5033390;28;20540;-74
2024/01/31 08:29:21;;;;;;;28.48;17.25;;;;;;;6.18;55.61;102716.69;5049690;28;20025;-75
2024/01/31 08:31:47;;;;;;;26.92;17.33;;;;;;;6.36;54.84;102736.69;5048823;28;20145;-75
2024/01/31 08:34:13;;;;;;;22.67;16.23;;;;;;;6.46;54.23;102730.09;5049600;28;20037;-75
2024/01/31 08:36:39;;;;;;;23.48;16.98;;;;;;;6.42;53.49;102699.91;5069126;28;20028;-78
2024/01/31 08:39:04;;;;;;;29.60;18.70;;;;;;;6.61;53.21;102707.34;5080836;28;20048;-75
2024/01/31 08:41:31;;;;;;;31.35;18.70;;;;;;;6.43;53.33;102693.66;5034957;28;20091;-75
2024/01/31 08:43:57;;;;;;;34.55;18.15;;;;;;;6.77;53.72;102724.66;5049627;28;20033;-73
2024/01/31 08:46:26;;;;;;;37.58;17.98;;;;;;;6.96;52.85;102720.47;5061250;28;20419;-77
2024/01/31 08:48:51;;;;;;;30.35;16.38;;;;;;;7.08;52.82;102720.06;5039114;28;20388;-74
2024/01/31 08:51:17;;;;;;;30.65;16.83;;;;;;;7.15;52.33;102689.50;5067160;28;20090;-75
2024/01/31 08:53:42;;;;;;;26.02;16.33;;;;;;;7.47;51.59;102716.03;5050306;28;20797;-80
2024/01/31 08:56:11;;;;;;;27.88;17.13;;;;;;;7.71;51.67;102711.56;5066154;28;20488;-74
2024/01/31 08:58:38;;;;;;;22.63;13.30;;;;;;;7.71;50.66;102697.31;5072610;28;20503;-74
2024/01/31 09:01:04;;;;;;;28.67;15.43;;;;;;;7.87;49.97;102711.91;5041762;28;20041;-73
2024/01/31 09:03:29;;;;;;;27.27;15.98;;;;;;;7.78;50.12;102696.16;5053456;28;20025;-74
2024/01/31 09:05:55;;;;;;;27.38;14.68;;;;;;;7.71;50.03;102683.91;5067604;28;20052;-75
2024/01/31 09:08:21;;;;;;;26.55;15.02;;;;;;;7.75;49.58;102681.09;5039267;28;20032;-74
2024/01/31 09:10:47;;;;;;;20.55;13.88;;;;;;;7.79;49.48;102687.22;5053738;28;20056;-74
2024/01/31 09:13:12;;;;;;;22.23;13.50;;;;;;;7.81;49.34;102685.34;5052059;28;20120;-79
2024/01/31 09:15:38;;;;;;;25.55;12.80;;;;;;;7.90;49.12;102695.72;5058261;28;20035;-75
2024/01/31 09:18:03;;;;;;;34.80;13.75;;;;;;;7.71;48.84;102662.50;5073020;28;20112;-75
2024/01/31 09:20:30;;;;;;;18.73;12.18;;;;;;;7.79;49.37;102655.94;5065034;28;20032;-79
2024/01/31 09:22:56;;;;;;;24.75;13.02;;;;;;;7.98;49.09;102675.72;5052268;28;20044;-74
2024/01/31 09:25:23;;;;;;;26.73;15.90;;;;;;;8.17;48.70;102667.84;5061731;28;20032;-74
2024/01/31 09:27:49;;;;;;;23.95;11.88;;;;;;;8.22;48.26;102668.56;5048753;28;20060;-79
2024/01/31 09:30:15;;;;;;;111.22;17.77;;;;;;;8.40;48.07;102665.19;5048219;28;20071;-77
2024/01/31 09:32:40;;;;;;;20.10;11.15;;;;;;;8.56;nan;102650.22;5073792;28;20024;-73
2024/01/31 09:35:06;;;;;;;17.58;10.95;;;;;;;8.65;47.45;102641.78;5052837;28;20493;-73
2024/01/31 09:37:32;;;;;;;22.65;10.20;;;;;;;8.88;47.19;102661.44;5080037;28;20036;-74
2024/01/31 09:39:59;;;;;;;13.25;8.75;;;;;;;8.92;46.56;102646.94;5069588;28;20048;-80
2024/01/31 09:42:27;;;;;;;28.42;10.95;;;;;;;9.08;46.26;102653.41;5041682;28;20518;-73
2024/01/31 09:44:56;;;;;;;18.30;9.32;;;;;;;8.92;45.60;102637.09;5055676;28;20028;-74
2024/01/31 09:47:27;;;;;;;35.78;15.02;;;;;;;8.83;46.05;102636.59;5026640;28;20076;-75
2024/01/31 09:49:54;;;;;;;17.53;11.70;;;;;;;8.70;46.28;102591.50;5055846;28;20028;-73
2024/01/31 09:52:29;;;;;;;13.32;9.85;;;;;;;9.08;45.96;102632.78;5073546;28;20120;-74
2024/01/31 09:54:58;;;;;;;20.02;10.90;;;;;;;9.15;45.52;102630.72;5056263;28;20032;-75
2024/01/31 09:57:25;;;;;;;31.95;15.25;;;;;;;9.11;45.66;102626.44;5053234;28;20041;-75
2024/01/31 09:59:51;;;;;;;26.63;11.90;;;;;;;9.08;45.63;102621.22;5045278;28;20021;-74
2024/01/31 10:02:17;;;;;;;27.55;10.30;;;;;;;9.05;46.06;102616.81;5072568;28;20021;-74
2024/01/31 10:04:49;;;;;;;29.58;11.70;;;;;;;9.13;45.82;102613.81;5071906;28;20187;-77
2024/01/31 10:07:28;;;;;;;23.30;11.52;;;;;;;9.25;45.16;102615.97;5053600;28;20032;-77
2024/01/31 10:09:54;;;;;;;16.33;10.65;;;;;;;9.21;45.12;102612.53;5071842;28;20462;-71
2024/01/31 10:12:22;;;;;;;108.38;24.15;;;;;;;9.06;45.24;102566.69;5072486;28;20037;-74
2024/01/31 10:14:51;;;;;;;54.08;16.80;;;;;;;9.20;45.08;102569.66;5038899;28;20043;-73
2024/01/31 10:17:17;;;;;;;26.05;12.68;;;;;;;9.41;45.36;102591.97;5054097;28;20399;-76
2024/01/31 10:19:43;;;;;;;25.38;11.75;;;;;;;9.48;44.62;102596.16;5035701;28;20523;-80
2024/01/31 10:22:08;;;;;;;27.77;11.65;;;;;;;9.47;44.35;102586.34;5046599;28;20082;-76
2024/01/31 10:24:34;;;;;;;30.23;10.80;;;;;;;9.64;44.75;102587.28;5049389;28;20063;-74
2024/01/31 10:27:05;;;;;;;48.70;12.50;;;;;;;9.83;44.82;102585.50;5016381;28;20043;-77
2024/01/31 10:29:32;;;;;;;25.50;9.77;;;;;;;9.90;43.76;102571.78;5029273;28;20029;-77
2024/01/31 10:31:57;;;;;;;17.60;9.00;;;;;;;9.88;43.76;102571.81;5041643;28;20036;-77
2024/01/31 10:34:25;;;;;;;26.45;11.63;;;;;;;9.99;43.87;102574.03;5037834;28;20025;-73
2024/01/31 10:36:51;;;;;;;40.42;12.68;;;;;;;9.80;42.88;102569.53;5049850;28;20043;-73
2024/01/31 10:39:20;;;;;;;45.15;22.30;;;;;;;9.29;43.16;102515.53;5027871;28;20068;-73
2024/01/31 10:41:47;;;;;;;21.45;9.13;;;;;;;9.60;43.43;102572.25;4996299;28;20484;-75
2024/01/31 10:44:15;;;;;;;25.45;10.57;;;;;;;9.66;43.71;102582.72;5049189;28;20045;-75
2024/01/31 10:46:43;;;;;;;19.45;8.00;;;;;;;9.60;43.27;102560.66;5049022;28;20029;-74
2024/01/31 10:49:11;;;;;;;20.08;10.82;;;;;;;9.81;43.38;102563.19;5048461;28;20032;-75
2024/01/31 10:51:39;;;;;;;36.85;10.63;;;;;;;9.76;42.77;102557.16;5048428;28;20052;-75
2024/01/31 10:54:06;;;;;;;15.38;8.05;;;;;;;9.74;43.32;102547.44;5048639;28;20040;-73
2024/01/31 10:56:33;;;;;;;13.82;8.27;;;;;;;9.84;42.79;102538.88;5053266;28;20044;-75
2024/01/31 10:59:01;;;;;;;27.98;12.07;;;;;;;10.05;42.55;102565.66;5070804;28;20028;-75
2024/01/31 11:01:30;;;;;;;17.88;9.48;;;;;;;9.99;42.35;102547.13;5071073;28;20032;-73
2024/01/31 11:03:56;;;;;;;34.65;14.05;;;;;;;9.93;42.31;102532.19;5070333;28;20025;-74
2024/01/31 11:06:25;;;;;;;10.50;7.57;;;;;;;10.08;41.72;102541.31;5070972;28;20063;-76
2024/01/31 11:08:51;;;;;;;12.68;8.32;;;;;;;10.01;41.27;102540.72;5070546;28;20033;-76
2024/01/31 11:11:20;;;;;;;45.97;10.75;;;;;;;10.08;41.93;102541.31;5070740;28;20025;-74
2024/01/31 11:13:45;;;;;;;24.17;11.15;;;;;;;10.12;41.66;102526.78;5070728;28;20029;-76